sensor_id;sensor_type;location;lat;lon;timestamp;pressure;altitude;pressure_sealevel;temperature;humidity
79678;BME280;69145;45.544;10.214;2023-04-23T00:00:05;99788.59;;;17.36;77.25
79678;BME280;69145;45.544;10.214;2023-04-23T00:02:33;99787.81;;;17.35;77.27
79678;BME280;69145;45.544;10.214;2023-04-23T00:05:02;99787.56;;;17.37;76.93
79678;BME280;69145;45.544;10.214;2023-04-23T00:07:34;99787.81;;;17.35;76.23
79678;BME280;69145;45.544;10.214;2023-04-23T00:10:00;99779.72;;;17.37;75.93
79678;BME280;69145;45.544;10.214;2023-04-23T00:12:31;99778.16;;;17.36;76.24
79678;BME280;69145;45.544;10.214;2023-04-23T00:14:58;99781.81;;;17.35;76.09
79678;BME280;69145;45.544;10.214;2023-04-23T00:17:24;99768.16;;;17.33;75.89
79678;BME280;69145;45.544;10.214;2023-04-23T00:19:49;99776.09;;;17.38;76.94
79678;BME280;69145;45.544;10.214;2023-04-23T00:22:16;99774.50;;;17.37;75.48
79678;BME280;69145;45.544;10.214;2023-04-23T00:24:42;99771.09;;;17.36;76.71
79678;BME280;69145;45.544;10.214;2023-04-23T00:27:07;99765.66;;;17.38;75.94
79678;BME280;69145;45.544;10.214;2023-04-23T00:29:33;99765.66;;;17.38;76.48
79678;BME280;69145;45.544;10.214;2023-04-23T00:31:58;99760.41;;;17.38;75.83
79678;BME280;69145;45.544;10.214;2023-04-23T00:34:25;99758.03;;;17.36;75.71
79678;BME280;69145;45.544;10.214;2023-04-23T00:36:50;99758.03;;;17.36;76.80
79678;BME280;69145;45.544;10.214;2023-04-23T00:39:15;99765.88;;;17.36;76.76
79678;BME280;69145;45.544;10.214;2023-04-23T00:41:41;99761.66;;;17.35;76.85
79678;BME280;69145;45.544;10.214;2023-04-23T00:44:06;99753.56;;;17.37;76.64
79678;BME280;69145;45.544;10.214;2023-04-23T00:46:34;99765.66;;;17.38;76.70
79678;BME280;69145;45.544;10.214;2023-04-23T00:49:00;99753.81;;;17.35;76.03
79678;BME280;69145;45.544;10.214;2023-04-23T00:51:27;99762.22;;;17.37;74.02
79678;BME280;69145;45.544;10.214;2023-04-23T00:53:52;99753.56;;;17.37;73.25
79678;BME280;69145;45.544;10.214;2023-04-23T00:56:18;99755.19;;;17.38;72.93
79678;BME280;69145;45.544;10.214;2023-04-23T00:58:44;99754.38;;;17.37;72.56
79678;BME280;69145;45.544;10.214;2023-04-23T01:01:10;99764.59;;;17.39;72.15
79678;BME280;69145;45.544;10.214;2023-04-23T01:03:37;99755.19;;;17.38;72.32
79678;BME280;69145;45.544;10.214;2023-04-23T01:06:03;99752.56;;;17.38;71.84
79678;BME280;69145;45.544;10.214;2023-04-23T01:08:30;99750.97;;;17.37;71.50
79678;BME280;69145;45.544;10.214;2023-04-23T01:10:56;99751.75;;;17.37;70.99
79678;BME280;69145;45.544;10.214;2023-04-23T01:13:22;99753.38;;;17.38;71.25
79678;BME280;69145;45.544;10.214;2023-04-23T01:15:51;99750.97;;;17.37;70.75
79678;BME280;69145;45.544;10.214;2023-04-23T01:18:16;99749.94;;;17.38;69.61
79678;BME280;69145;45.544;10.214;2023-04-23T01:20:43;99743.91;;;17.37;70.02
79678;BME280;69145;45.544;10.214;2023-04-23T01:23:08;99743.13;;;17.37;70.82
79678;BME280;69145;45.544;10.214;2023-04-23T01:25:34;99749.94;;;17.38;70.57
79678;BME280;69145;45.544;10.214;2023-04-23T01:27:59;99749.94;;;17.38;72.07
79678;BME280;69145;45.544;10.214;2023-04-23T01:30:26;99751.75;;;17.37;71.09
79678;BME280;69145;45.544;10.214;2023-04-23T01:32:55;99746.53;;;17.37;69.92
79678;BME280;69145;45.544;10.214;2023-04-23T01:35:21;99750.97;;;17.37;70.13
79678;BME280;69145;45.544;10.214;2023-04-23T01:37:47;99749.16;;;17.37;68.46
79678;BME280;69145;45.544;10.214;2023-04-23T01:40:13;99743.13;;;17.37;68.60
79678;BME280;69145;45.544;10.214;2023-04-23T01:42:39;99742.09;;;17.38;68.14
79678;BME280;69145;45.544;10.214;2023-04-23T01:45:05;99739.72;;;17.36;68.48
79678;BME280;69145;45.544;10.214;2023-04-23T01:47:33;99740.50;;;17.37;68.34
79678;BME280;69145;45.544;10.214;2023-04-23T01:49:58;99741.31;;;17.37;68.51
79678;BME280;69145;45.544;10.214;2023-04-23T01:52:24;99737.88;;;17.37;67.14
79678;BME280;69145;45.544;10.214;2023-04-23T01:54:49;99740.28;;;17.38;68.08
79678;BME280;69145;45.544;10.214;2023-04-23T01:57:14;99733.47;;;17.37;67.45
79678;BME280;69145;45.544;10.214;2023-04-23T01:59:41;99737.69;;;17.38;67.76
79678;BME280;69145;45.544;10.214;2023-04-23T02:02:06;99748.34;;;17.37;67.53
79678;BME280;69145;45.544;10.214;2023-04-23T02:04:35;99743.13;;;17.37;67.07
79678;BME280;69145;45.544;10.214;2023-04-23T02:07:02;99740.50;;;17.37;67.25
79678;BME280;69145;45.544;10.214;2023-04-23T02:09:27;99739.72;;;17.36;68.80
79678;BME280;69145;45.544;10.214;2023-04-23T02:11:53;99736.31;;;17.36;69.17
79678;BME280;69145;45.544;10.214;2023-04-23T02:14:18;99742.34;;;17.36;67.92
79678;BME280;69145;45.544;10.214;2023-04-23T02:16:43;99738.69;;;17.37;67.93
79678;BME280;69145;45.544;10.214;2023-04-23T02:19:09;99732.66;;;17.37;68.15
79678;BME280;69145;45.544;10.214;2023-04-23T02:21:35;99731.88;;;17.36;67.62
79678;BME280;69145;45.544;10.214;2023-04-23T02:24:00;99727.44;;;17.37;66.46
79678;BME280;69145;45.544;10.214;2023-04-23T02:26:26;99732.88;;;17.35;66.36
79678;BME280;69145;45.544;10.214;2023-04-23T02:28:53;99731.06;;;17.36;66.62
79678;BME280;69145;45.544;10.214;2023-04-23T02:31:18;99725.03;;;17.35;65.97
79678;BME280;69145;45.544;10.214;2023-04-23T02:33:44;99729.50;;;17.35;66.22
79678;BME280;69145;45.544;10.214;2023-04-23T02:36:11;99730.28;;;17.35;68.27
79678;BME280;69145;45.544;10.214;2023-04-23T02:38:36;99728.47;;;17.36;66.97
79678;BME280;69145;45.544;10.214;2023-04-23T02:41:01;99725.03;;;17.35;67.34
79678;BME280;69145;45.544;10.214;2023-04-23T02:43:27;99732.88;;;17.35;67.78
79678;BME280;69145;45.544;10.214;2023-04-23T02:45:52;99725.84;;;17.36;68.12
79678;BME280;69145;45.544;10.214;2023-04-23T02:48:17;99722.09;;;17.32;66.11
79678;BME280;69145;45.544;10.214;2023-04-23T02:50:43;99722.66;;;17.34;66.77
79678;BME280;69145;45.544;10.214;2023-04-23T02:53:08;99719.03;;;17.35;67.38
79678;BME280;69145;45.544;10.214;2023-04-23T02:55:33;99725.28;;;17.34;66.40
79678;BME280;69145;45.544;10.214;2023-04-23T02:57:59;99720.03;;;17.34;66.23
79678;BME280;69145;45.544;10.214;2023-04-23T03:00:25;99723.47;;;17.34;66.01
79678;BME280;69145;45.544;10.214;2023-04-23T03:02:51;99733.13;;;17.34;65.71
79678;BME280;69145;45.544;10.214;2023-04-23T03:05:16;99734.94;;;17.33;65.94
79678;BME280;69145;45.544;10.214;2023-04-23T03:07:42;99733.13;;;17.34;65.40
79678;BME280;69145;45.544;10.214;2023-04-23T03:10:07;99731.53;;;17.33;65.45
79678;BME280;69145;45.544;10.214;2023-04-23T03:12:33;99729.69;;;17.33;65.63
79678;BME280;69145;45.544;10.214;2023-04-23T03:14:58;99731.78;;;17.31;65.64
79678;BME280;69145;45.544;10.214;2023-04-23T03:17:24;99728.13;;;17.32;66.06
79678;BME280;69145;45.544;10.214;2023-04-23T03:19:49;99730.75;;;17.32;65.49
79678;BME280;69145;45.544;10.214;2023-04-23T03:22:14;99723.69;;;17.33;66.09
79678;BME280;69145;45.544;10.214;2023-04-23T03:24:40;99727.91;;;17.34;66.00
79678;BME280;69145;45.544;10.214;2023-04-23T03:27:05;99723.47;;;17.34;65.72
79678;BME280;69145;45.544;10.214;2023-04-23T03:29:30;99721.84;;;17.33;66.02
79678;BME280;69145;45.544;10.214;2023-04-23T03:31:55;99710.63;;;17.33;65.72
79678;BME280;69145;45.544;10.214;2023-04-23T03:34:21;99711.63;;;17.32;65.59
79678;BME280;69145;45.544;10.214;2023-04-23T03:36:46;99712.44;;;17.32;65.75
79678;BME280;69145;45.544;10.214;2023-04-23T03:39:13;99709.81;;;17.32;65.74
79678;BME280;69145;45.544;10.214;2023-04-23T03:41:38;99710.63;;;17.33;66.15
79678;BME280;69145;45.544;10.214;2023-04-23T03:44:04;99717.44;;;17.34;67.53
79678;BME280;69145;45.544;10.214;2023-04-23T03:46:29;99716.44;;;17.35;67.57
79678;BME280;69145;45.544;10.214;2023-04-23T03:48:55;99717.19;;;17.35;68.38
79678;BME280;69145;45.544;10.214;2023-04-23T03:51:20;99719.03;;;17.35;67.90
79678;BME280;69145;45.544;10.214;2023-04-23T03:53:45;99716.44;;;17.35;67.25
79678;BME280;69145;45.544;10.214;2023-04-23T03:56:11;99713.00;;;17.34;66.02
79678;BME280;69145;45.544;10.214;2023-04-23T03:58:36;99707.78;;;17.34;65.93
79678;BME280;69145;45.544;10.214;2023-04-23T04:01:02;99703.78;;;17.32;65.57
79678;BME280;69145;45.544;10.214;2023-04-23T04:03:27;99711.06;;;17.29;65.50
79678;BME280;69145;45.544;10.214;2023-04-23T04:05:53;99715.28;;;17.31;65.63
79678;BME280;69145;45.544;10.214;2023-04-23T04:08:18;99715.84;;;17.33;65.28
79678;BME280;69145;45.544;10.214;2023-04-23T04:10:43;99710.06;;;17.31;65.37
79678;BME280;69145;45.544;10.214;2023-04-23T04:13:09;99720.50;;;17.31;65.15
79678;BME280;69145;45.544;10.214;2023-04-23T04:15:34;99720.28;;;17.32;65.42
79678;BME280;69145;45.544;10.214;2023-04-23T04:18:00;99714.25;;;17.32;65.57
79678;BME280;69145;45.544;10.214;2023-04-23T04:20:26;99711.63;;;17.32;65.49
79678;BME280;69145;45.544;10.214;2023-04-23T04:22:53;99708.25;;;17.31;65.30
79678;BME280;69145;45.544;10.214;2023-04-23T04:25:19;99708.25;;;17.31;65.30
79678;BME280;69145;45.544;10.214;2023-04-23T04:27:46;99715.28;;;17.31;65.28
79678;BME280;69145;45.544;10.214;2023-04-23T04:30:12;99711.06;;;17.29;65.02
79678;BME280;69145;45.544;10.214;2023-04-23T04:32:38;99714.47;;;17.30;65.29
79678;BME280;69145;45.544;10.214;2023-04-23T04:35:05;99724.94;;;17.30;65.21
79678;BME280;69145;45.544;10.214;2023-04-23T04:37:31;99717.91;;;17.31;65.22
79678;BME280;69145;45.544;10.214;2023-04-23T04:39:57;99723.38;;;17.29;65.02
79678;BME280;69145;45.544;10.214;2023-04-23T04:42:23;99716.09;;;17.31;65.51
79678;BME280;69145;45.544;10.214;2023-04-23T04:44:49;99716.28;;;17.29;65.60
79678;BME280;69145;45.544;10.214;2023-04-23T04:47:15;99717.09;;;17.30;65.38
79678;BME280;69145;45.544;10.214;2023-04-23T04:49:40;99711.63;;;17.32;65.87
79678;BME280;69145;45.544;10.214;2023-04-23T04:52:06;99716.88;;;17.32;65.86
79678;BME280;69145;45.544;10.214;2023-04-23T04:54:31;99714.25;;;17.32;65.55
79678;BME280;69145;45.544;10.214;2023-04-23T04:56:57;99711.06;;;17.29;65.49
79678;BME280;69145;45.544;10.214;2023-04-23T04:59:22;99709.94;;;17.25;65.34
79678;BME280;69145;45.544;10.214;2023-04-23T05:01:47;99715.53;;;17.29;66.47
79678;BME280;69145;45.544;10.214;2023-04-23T05:04:13;99710.53;;;17.27;65.69
79678;BME280;69145;45.544;10.214;2023-04-23T05:06:38;99718.91;;;17.29;65.27
79678;BME280;69145;45.544;10.214;2023-04-23T05:09:03;99725.97;;;17.29;65.31
79678;BME280;69145;45.544;10.214;2023-04-23T05:11:29;99716.75;;;17.26;64.98
79678;BME280;69145;45.544;10.214;2023-04-23T05:13:55;99720.75;;;17.29;64.96
79678;BME280;69145;45.544;10.214;2023-04-23T05:16:21;99719.94;;;17.28;64.93
79678;BME280;69145;45.544;10.214;2023-04-23T05:18:46;99719.13;;;17.28;64.99
79678;BME280;69145;45.544;10.214;2023-04-23T05:21:12;99711.28;;;17.28;65.00
79678;BME280;69145;45.544;10.214;2023-04-23T05:23:37;99709.72;;;17.27;65.12
79678;BME280;69145;45.544;10.214;2023-04-23T05:26:02;99714.72;;;17.28;65.20
79678;BME280;69145;45.544;10.214;2023-04-23T05:28:28;99709.47;;;17.28;64.95
79678;BME280;69145;45.544;10.214;2023-04-23T05:30:54;99729.59;;;17.28;64.90
79678;BME280;69145;45.544;10.214;2023-04-23T05:33:20;99726.75;;;17.29;65.59
79678;BME280;69145;45.544;10.214;2023-04-23T05:35:45;99735.41;;;17.30;66.71
79678;BME280;69145;45.544;10.214;2023-04-23T05:38:11;99727.56;;;17.30;65.49
79678;BME280;69145;45.544;10.214;2023-04-23T05:40:39;99737.78;;;17.32;65.21
79678;BME280;69145;45.544;10.214;2023-04-23T05:43:05;99731.53;;;17.33;65.32
79678;BME280;69145;45.544;10.214;2023-04-23T05:45:30;99730.16;;;17.30;64.77
79678;BME280;69145;45.544;10.214;2023-04-23T05:47:55;99729.38;;;17.29;65.05
79678;BME280;69145;45.544;10.214;2023-04-23T05:50:21;99729.38;;;17.29;65.25
79678;BME280;69145;45.544;10.214;2023-04-23T05:52:46;99736.78;;;17.33;66.96
79678;BME280;69145;45.544;10.214;2023-04-23T05:55:12;99737.56;;;17.33;66.06
79678;BME280;69145;45.544;10.214;2023-04-23T05:57:39;99739.38;;;17.33;67.11
79678;BME280;69145;45.544;10.214;2023-04-23T06:00:06;99730.50;;;17.34;67.01
79678;BME280;69145;45.544;10.214;2023-04-23T06:02:34;99737.34;;;17.35;66.83
79678;BME280;69145;45.544;10.214;2023-04-23T06:04:59;99731.53;;;17.33;67.08
79678;BME280;69145;45.544;10.214;2023-04-23T06:07:24;99742.56;;;17.35;67.90
79678;BME280;69145;45.544;10.214;2023-04-23T06:09:50;99741.53;;;17.36;69.16
79678;BME280;69145;45.544;10.214;2023-04-23T06:12:15;99744.16;;;17.36;70.82
79678;BME280;69145;45.544;10.214;2023-04-23T06:14:40;99748.34;;;17.37;71.75
79678;BME280;69145;45.544;10.214;2023-04-23T06:17:06;99751.75;;;17.37;71.95
79678;BME280;69145;45.544;10.214;2023-04-23T06:19:31;99748.34;;;17.37;70.94
79678;BME280;69145;45.544;10.214;2023-04-23T06:21:57;99746.53;;;17.37;69.83
79678;BME280;69145;45.544;10.214;2023-04-23T06:24:22;99745.72;;;17.37;72.48
79678;BME280;69145;45.544;10.214;2023-04-23T06:26:48;99746.53;;;17.37;72.46
79678;BME280;69145;45.544;10.214;2023-04-23T06:29:13;99746.31;;;17.39;72.46
79678;BME280;69145;45.544;10.214;2023-04-23T06:31:42;99747.34;;;17.38;70.49
79678;BME280;69145;45.544;10.214;2023-04-23T06:34:07;99754.16;;;17.39;72.37
79678;BME280;69145;45.544;10.214;2023-04-23T06:36:33;99750.53;;;17.40;73.96
79678;BME280;69145;45.544;10.214;2023-04-23T06:38:58;99747.09;;;17.39;74.72
79678;BME280;69145;45.544;10.214;2023-04-23T06:41:24;99748.91;;;17.39;75.72
79678;BME280;69145;45.544;10.214;2023-04-23T06:43:50;99743.91;;;17.37;69.10
79678;BME280;69145;45.544;10.214;2023-04-23T06:46:15;99749.16;;;17.37;71.52
79678;BME280;69145;45.544;10.214;2023-04-23T06:48:41;99754.16;;;17.39;73.11
79678;BME280;69145;45.544;10.214;2023-04-23T06:51:06;99744.50;;;17.39;75.45
79678;BME280;69145;45.544;10.214;2023-04-23T06:53:32;99750.75;;;17.38;75.86
79678;BME280;69145;45.544;10.214;2023-04-23T06:55:57;99750.75;;;17.38;75.19
79678;BME280;69145;45.544;10.214;2023-04-23T06:58:23;99746.31;;;17.39;76.36
79678;BME280;69145;45.544;10.214;2023-04-23T07:00:58;99744.50;;;17.39;76.51
79678;BME280;69145;45.544;10.214;2023-04-23T07:03:25;99742.69;;;17.40;77.24
79678;BME280;69145;45.544;10.214;2023-04-23T07:05:52;99747.09;;;17.39;77.11
79678;BME280;69145;45.544;10.214;2023-04-23T07:08:17;99749.94;;;17.38;77.50
79678;BME280;69145;45.544;10.214;2023-04-23T07:10:43;99741.88;;;17.39;76.86
79678;BME280;69145;45.544;10.214;2023-04-23T07:13:09;99742.09;;;17.38;76.59
79678;BME280;69145;45.544;10.214;2023-04-23T07:15:43;99738.69;;;17.37;77.12
79678;BME280;69145;45.544;10.214;2023-04-23T07:18:09;99736.06;;;17.37;77.59
79678;BME280;69145;45.544;10.214;2023-04-23T07:20:34;99742.91;;;17.38;77.28
79678;BME280;69145;45.544;10.214;2023-04-23T07:23:00;99736.88;;;17.38;77.54
79678;BME280;69145;45.544;10.214;2023-04-23T07:25:28;99742.09;;;17.38;77.36
79678;BME280;69145;45.544;10.214;2023-04-23T07:27:53;99748.91;;;17.39;77.43
79678;BME280;69145;45.544;10.214;2023-04-23T07:30:19;99737.88;;;17.37;77.46
79678;BME280;69145;45.544;10.214;2023-04-23T07:32:45;99744.16;;;17.36;77.14
79678;BME280;69145;45.544;10.214;2023-04-23T07:35:11;99741.31;;;17.37;77.13
79678;BME280;69145;45.544;10.214;2023-04-23T07:37:36;99741.06;;;17.39;76.87
79678;BME280;69145;45.544;10.214;2023-04-23T07:40:03;99742.69;;;17.40;77.04
79678;BME280;69145;45.544;10.214;2023-04-23T07:42:30;99739.50;;;17.38;77.13
79678;BME280;69145;45.544;10.214;2023-04-23T07:44:56;99737.69;;;17.38;77.38
79678;BME280;69145;45.544;10.214;2023-04-23T07:47:21;99735.28;;;17.37;78.04
79678;BME280;69145;45.544;10.214;2023-04-23T07:49:47;99736.06;;;17.37;77.22
79678;BME280;69145;45.544;10.214;2023-04-23T07:52:12;99723.81;;;17.38;77.74
79678;BME280;69145;45.544;10.214;2023-04-23T07:54:38;99730.03;;;17.37;77.68
79678;BME280;69145;45.544;10.214;2023-04-23T07:57:03;99732.66;;;17.37;78.01
79678;BME280;69145;45.544;10.214;2023-04-23T07:59:28;99732.66;;;17.37;77.84
79678;BME280;69145;45.544;10.214;2023-04-23T08:01:54;99727.22;;;17.38;77.72
79678;BME280;69145;45.544;10.214;2023-04-23T08:04:19;99727.44;;;17.37;77.92
79678;BME280;69145;45.544;10.214;2023-04-23T08:06:45;99728.22;;;17.37;77.38
79678;BME280;69145;45.544;10.214;2023-04-23T08:09:11;99730.03;;;17.37;78.06
79678;BME280;69145;45.544;10.214;2023-04-23T08:11:36;99727.44;;;17.37;77.65
79678;BME280;69145;45.544;10.214;2023-04-23T08:14:02;99733.69;;;17.36;77.54
79678;BME280;69145;45.544;10.214;2023-04-23T08:16:27;99718.81;;;17.36;78.12
79678;BME280;69145;45.544;10.214;2023-04-23T08:18:53;99730.03;;;17.37;77.62
79678;BME280;69145;45.544;10.214;2023-04-23T08:21:18;99729.59;;;17.40;77.29
79678;BME280;69145;45.544;10.214;2023-04-23T08:23:44;99729.03;;;17.38;78.22
79678;BME280;69145;45.544;10.214;2023-04-23T08:26:09;99732.44;;;17.38;78.12
79678;BME280;69145;45.544;10.214;2023-04-23T08:28:35;99729.03;;;17.38;77.97
79678;BME280;69145;45.544;10.214;2023-04-23T08:31:00;99728.22;;;17.37;77.86
79678;BME280;69145;45.544;10.214;2023-04-23T08:33:26;99733.00;;;17.40;77.96
79678;BME280;69145;45.544;10.214;2023-04-23T08:35:52;99732.22;;;17.40;78.17
79678;BME280;69145;45.544;10.214;2023-04-23T08:38:17;99733.00;;;17.40;78.44
79678;BME280;69145;45.544;10.214;2023-04-23T08:40:44;99727.22;;;17.38;78.52
79678;BME280;69145;45.544;10.214;2023-04-23T08:43:15;99728.00;;;17.39;78.03
79678;BME280;69145;45.544;10.214;2023-04-23T08:45:46;99735.06;;;17.38;78.34
79678;BME280;69145;45.544;10.214;2023-04-23T08:48:12;99731.41;;;17.39;78.51
79678;BME280;69145;45.544;10.214;2023-04-23T08:50:43;99735.06;;;17.38;78.32
79678;BME280;69145;45.544;10.214;2023-04-23T08:53:09;99728.81;;;17.39;78.31
79678;BME280;69145;45.544;10.214;2023-04-23T08:55:35;99725.84;;;17.36;78.73
79678;BME280;69145;45.544;10.214;2023-04-23T08:58:01;99730.59;;;17.39;78.24
79678;BME280;69145;45.544;10.214;2023-04-23T09:00:31;99728.22;;;17.37;78.90
79678;BME280;69145;45.544;10.214;2023-04-23T09:02:58;99726.19;;;17.39;78.64
79678;BME280;69145;45.544;10.214;2023-04-23T09:05:25;99733.78;;;17.41;78.83
79678;BME280;69145;45.544;10.214;2023-04-23T09:07:51;99729.38;;;17.41;78.53
79678;BME280;69145;45.544;10.214;2023-04-23T09:10:18;99729.38;;;17.41;78.89
79678;BME280;69145;45.544;10.214;2023-04-23T09:12:43;99728.56;;;17.41;78.83
79678;BME280;69145;45.544;10.214;2023-04-23T09:15:09;99733.00;;;17.40;79.02
79678;BME280;69145;45.544;10.214;2023-04-23T09:17:37;99728.56;;;17.41;78.56
79678;BME280;69145;45.544;10.214;2023-04-23T09:20:04;99719.72;;;17.42;78.48
79678;BME280;69145;45.544;10.214;2023-04-23T09:25:09;99713.69;;;17.41;77.96
79678;BME280;69145;45.544;10.214;2023-04-23T09:27:35;99712.63;;;17.42;78.32
79678;BME280;69145;45.544;10.214;2023-04-23T09:30:03;99719.72;;;17.42;78.81
79678;BME280;69145;45.544;10.214;2023-04-23T09:32:31;99716.53;;;17.40;78.48
79678;BME280;69145;45.544;10.214;2023-04-23T09:35:08;99706.06;;;17.40;79.22
79678;BME280;69145;45.544;10.214;2023-04-23T09:37:34;99703.44;;;17.40;78.45
79678;BME280;69145;45.544;10.214;2023-04-23T09:40:06;99705.84;;;17.41;79.04
79678;BME280;69145;45.544;10.214;2023-04-23T09:42:33;99699.78;;;17.41;79.18
79678;BME280;69145;45.544;10.214;2023-04-23T09:45:03;99703.78;;;17.43;78.38
79678;BME280;69145;45.544;10.214;2023-04-23T09:47:38;99702.41;;;17.41;78.53
79678;BME280;69145;45.544;10.214;2023-04-23T09:50:04;99701.41;;;17.42;78.47
79678;BME280;69145;45.544;10.214;2023-04-23T09:52:30;99704.78;;;17.42;78.93
79678;BME280;69145;45.544;10.214;2023-04-23T09:54:57;99701.41;;;17.42;78.62
79678;BME280;69145;45.544;10.214;2023-04-23T09:57:26;99694.34;;;17.42;78.82
79678;BME280;69145;45.544;10.214;2023-04-23T09:59:55;99690.72;;;17.43;78.83
79678;BME280;69145;45.544;10.214;2023-04-23T10:02:26;99690.94;;;17.42;79.20
79678;BME280;69145;45.544;10.214;2023-04-23T10:04:52;99684.91;;;17.41;78.40
79678;BME280;69145;45.544;10.214;2023-04-23T10:07:18;99691.72;;;17.42;78.89
79678;BME280;69145;45.544;10.214;2023-04-23T10:09:45;99693.31;;;17.43;78.87
79678;BME280;69145;45.544;10.214;2023-04-23T10:12:12;99693.56;;;17.42;79.19
79678;BME280;69145;45.544;10.214;2023-04-23T10:14:37;99696.75;;;17.44;78.81
79678;BME280;69145;45.544;10.214;2023-04-23T10:17:03;99701.97;;;17.44;78.75
79678;BME280;69145;45.544;10.214;2023-04-23T10:19:31;99701.97;;;17.44;79.18
79678;BME280;69145;45.544;10.214;2023-04-23T10:22:00;99695.13;;;17.43;79.30
79678;BME280;69145;45.544;10.214;2023-04-23T10:24:32;99690.47;;;17.45;78.63
79678;BME280;69145;45.544;10.214;2023-04-23T10:27:02;99687.84;;;17.45;78.54
79678;BME280;69145;45.544;10.214;2023-04-23T10:29:32;99679.22;;;17.44;78.83
79678;BME280;69145;45.544;10.214;2023-04-23T10:32:03;99680.25;;;17.43;78.73
79678;BME280;69145;45.544;10.214;2023-04-23T10:34:30;99680.81;;;17.45;78.75
79678;BME280;69145;45.544;10.214;2023-04-23T10:36:56;99681.06;;;17.44;78.94
79678;BME280;69145;45.544;10.214;2023-04-23T10:39:25;99675.81;;;17.44;78.36
79678;BME280;69145;45.544;10.214;2023-04-23T10:41:53;99673.75;;;17.46;78.54
79678;BME280;69145;45.544;10.214;2023-04-23T10:44:19;99681.06;;;17.44;78.53
79678;BME280;69145;45.544;10.214;2023-04-23T10:46:55;99671.38;;;17.44;78.67
79678;BME280;69145;45.544;10.214;2023-04-23T10:49:29;99673.75;;;17.46;77.89
79678;BME280;69145;45.544;10.214;2023-04-23T10:52:03;99669.31;;;17.46;78.11
79678;BME280;69145;45.544;10.214;2023-04-23T10:54:33;99659.09;;;17.45;78.17
79678;BME280;69145;45.544;10.214;2023-04-23T10:57:00;99661.69;;;17.45;78.13
79678;BME280;69145;45.544;10.214;2023-04-23T10:59:28;99663.28;;;17.46;78.91
79678;BME280;69145;45.544;10.214;2023-04-23T11:01:55;99660.66;;;17.46;77.86
79678;BME280;69145;45.544;10.214;2023-04-23T11:04:27;99662.50;;;17.45;78.82
79678;BME280;69145;45.544;10.214;2023-04-23T11:06:57;99658.06;;;17.46;77.79
79678;BME280;69145;45.544;10.214;2023-04-23T11:09:41;99654.44;;;17.47;77.61
79678;BME280;69145;45.544;10.214;2023-04-23T11:14:50;99654.66;;;17.45;78.42
79678;BME280;69145;45.544;10.214;2023-04-23T11:17:17;99643.41;;;17.45;78.57
79678;BME280;69145;45.544;10.214;2023-04-23T11:22:47;99636.34;;;17.45;78.87
79678;BME280;69145;45.544;10.214;2023-04-23T11:25:21;99627.94;;;17.43;77.86
79678;BME280;69145;45.544;10.214;2023-04-23T11:27:48;99635.56;;;17.45;77.61
79678;BME280;69145;45.544;10.214;2023-04-23T11:30:19;99632.13;;;17.44;77.76
79678;BME280;69145;45.544;10.214;2023-04-23T11:32:48;99627.72;;;17.45;76.88
79678;BME280;69145;45.544;10.214;2023-04-23T11:35:14;99626.66;;;17.46;78.13
79678;BME280;69145;45.544;10.214;2023-04-23T11:37:41;99619.84;;;17.45;78.54
79678;BME280;69145;45.544;10.214;2023-04-23T11:40:09;99623.28;;;17.45;77.91
79678;BME280;69145;45.544;10.214;2023-04-23T11:43:07;99616.19;;;17.46;78.11
79678;BME280;69145;45.544;10.214;2023-04-23T11:45:32;99613.59;;;17.46;78.35
79678;BME280;69145;45.544;10.214;2023-04-23T11:47:59;99610.19;;;17.45;78.34
79678;BME280;69145;45.544;10.214;2023-04-23T11:50:28;99615.22;;;17.47;78.41
79678;BME280;69145;45.544;10.214;2023-04-23T11:53:03;99602.16;;;17.47;77.88
79678;BME280;69145;45.544;10.214;2023-04-23T11:55:29;99599.75;;;17.45;77.79
79678;BME280;69145;45.544;10.214;2023-04-23T11:57:56;99600.50;;;17.46;77.76
79678;BME280;69145;45.544;10.214;2023-04-23T12:00:24;99602.16;;;17.47;77.81
79678;BME280;69145;45.544;10.214;2023-04-23T12:02:59;99600.34;;;17.47;77.39
79678;BME280;69145;45.544;10.214;2023-04-23T12:05:32;99596.91;;;17.47;77.87
79678;BME280;69145;45.544;10.214;2023-04-23T12:08:10;99592.25;;;17.49;77.60
79678;BME280;69145;45.544;10.214;2023-04-23T12:10:51;99593.25;;;17.48;78.11
79678;BME280;69145;45.544;10.214;2023-04-23T12:15:54;99580.97;;;17.48;78.45
79678;BME280;69145;45.544;10.214;2023-04-23T12:18:30;99576.00;;;17.47;78.08
79678;BME280;69145;45.544;10.214;2023-04-23T12:21:10;99584.41;;;17.49;77.80
79678;BME280;69145;45.544;10.214;2023-04-23T12:23:38;99582.19;;;17.46;77.58
79678;BME280;69145;45.544;10.214;2023-04-23T12:26:04;99573.38;;;17.47;77.99
79678;BME280;69145;45.544;10.214;2023-04-23T12:28:34;99568.34;;;17.45;77.98
79678;BME280;69145;45.544;10.214;2023-04-23T12:31:01;99554.22;;;17.46;77.96
79678;BME280;69145;45.544;10.214;2023-04-23T12:33:30;99561.88;;;17.48;77.71
79678;BME280;69145;45.544;10.214;2023-04-23T12:35:56;99567.91;;;17.48;78.21
79678;BME280;69145;45.544;10.214;2023-04-23T12:38:23;99564.25;;;17.49;78.27
79678;BME280;69145;45.544;10.214;2023-04-23T12:40:50;99560.31;;;17.47;77.78
79678;BME280;69145;45.544;10.214;2023-04-23T12:43:16;99565.53;;;17.47;78.30
79678;BME280;69145;45.544;10.214;2023-04-23T12:45:41;99558.50;;;17.47;78.09
79678;BME280;69145;45.544;10.214;2023-04-23T12:48:06;99556.66;;;17.48;77.75
79678;BME280;69145;45.544;10.214;2023-04-23T12:50:32;99555.63;;;17.49;77.65
79678;BME280;69145;45.544;10.214;2023-04-23T12:52:57;99550.63;;;17.47;77.95
79678;BME280;69145;45.544;10.214;2023-04-23T12:55:22;99545.94;;;17.49;77.83
79678;BME280;69145;45.544;10.214;2023-04-23T12:57:48;99543.31;;;17.49;77.56